Time;durP1;ratioP1;P1;durP2;ratioP2;P2;SDS_P1;SDS_P2;PMS_P1;PMS_P2;Temp;Humidity;BMP_temperature;BMP_pressure;BME280_temperature;BME280_humidity;BME280_pressure;Samples;Min_cycle;Max_cycle;Signal;HPM_P1;HPM_P2
2023/09/23 00:00:02;;;;;;;0.10;0.10;;;;;;;13.36;75.12;96774.81;5023135;28;20045;-72
2023/09/23 00:02:42;;;;;;;0.25;0.25;;;;;;;13.37;74.89;96773.78;5033060;28;20426;-72
2023/09/23 00:05:12;;;;;;;0.20;0.20;;;;;;;13.25;75.46;96783.69;5024881;28;20065;-72
2023/09/23 00:07:41;;;;;;;0.20;0.20;;;;;;;13.26;75.83;96777.28;5027879;28;20045;-72
2023/09/23 00:10:10;;;;;;;0.10;0.10;;;;;;;13.23;75.78;96781.22;5025884;28;20050;-72
2023/09/23 00:12:40;;;;;;;0.20;0.20;;;;;;;13.17;76.04;96784.84;5037808;28;20124;-72
2023/09/23 00:15:10;;;;;;;0.03;0.03;;;;;;;13.23;75.78;96786.59;5028400;28;20468;-72
2023/09/23 00:17:41;;;;;;;0.13;0.13;;;;;;;13.19;75.95;96789.94;5031703;28;20053;-72
2023/09/23 00:20:14;;;;;;;0.20;0.20;;;;;;;13.20;75.75;96796.94;5029901;28;20042;-72
2023/09/23 00:22:42;;;;;;;0.30;0.30;;;;;;;13.22;75.87;96800.19;5031283;28;20048;-72
2023/09/23 00:25:10;;;;;;;0.10;0.10;;;;;;;13.14;76.46;96808.59;5028625;28;20049;-72
2023/09/23 00:27:39;;;;;;;0.10;0.10;;;;;;;13.12;76.38;96807.97;5031633;28;20492;-72
2023/09/23 00:30:07;;;;;;;0.20;0.20;;;;;;;13.12;76.40;96816.00;5038912;28;20099;-73
2023/09/23 00:32:37;;;;;;;0.17;0.17;;;;;;;13.08;76.82;96818.31;5030970;28;20494;-72
2023/09/23 00:35:10;;;;;;;0.10;0.10;;;;;;;13.00;77.17;96812.47;5033281;28;20120;-72
2023/09/23 00:37:38;;;;;;;0.20;0.20;;;;;;;12.95;77.40;96810.50;5039108;28;20073;-72
2023/09/23 00:40:13;;;;;;;0.13;0.13;;;;;;;12.92;77.39;96815.47;5038256;28;20037;-71
2023/09/23 00:42:41;;;;;;;0.10;0.10;;;;;;;12.92;77.56;96810.94;5053183;28;20136;-71
2023/09/23 00:45:14;;;;;;;0.10;0.10;;;;;;;12.92;77.54;96805.59;5032566;28;20821;-71
2023/09/23 00:47:43;;;;;;;0.10;0.10;;;;;;;12.95;77.56;96801.66;5036634;28;20400;-71
2023/09/23 00:50:18;;;;;;;0.20;0.20;;;;;;;12.95;77.71;96797.09;5027571;28;20050;-71
2023/09/23 00:52:48;;;;;;;0.20;0.20;;;;;;;12.96;77.76;96805.97;5040237;28;20041;-71
2023/09/23 00:55:17;;;;;;;0.20;0.20;;;;;;;12.92;77.73;96815.47;5031197;28;20046;-71
2023/09/23 00:57:48;;;;;;;0.20;0.20;;;;;;;12.94;77.76;96826.78;5032024;28;20038;-71
2023/09/23 01:00:24;;;;;;;0.20;0.20;;;;;;;12.88;77.86;96813.25;5053087;28;20053;-71
2023/09/23 01:02:55;;;;;;;0.22;0.22;;;;;;;12.87;77.92;96802.78;5033425;28;20045;-71
2023/09/23 01:05:27;;;;;;;0.13;0.13;;;;;;;12.82;77.88;96802.66;5037354;28;20034;-71
2023/09/23 01:07:56;;;;;;;0.20;0.20;;;;;;;12.82;78.12;96811.50;5034106;28;20125;-71
2023/09/23 01:10:24;;;;;;;0.13;0.13;;;;;;;12.78;78.08;96804.94;5030431;28;20038;-71
2023/09/23 01:12:52;;;;;;;0.00;0.00;;;;;;;12.79;78.23;96811.13;5037689;28;20454;-71
2023/09/23 01:15:22;;;;;;;0.20;0.20;;;;;;;12.79;78.05;96817.31;5035148;28;20411;-71
2023/09/23 01:17:53;;;;;;;0.10;0.10;;;;;;;12.78;78.11;96817.53;5036572;28;20038;-72
2023/09/23 01:20:21;;;;;;;0.20;0.20;;;;;;;12.75;78.29;96810.78;5036838;28;20494;-71
2023/09/23 01:22:51;;;;;;;0.10;0.10;;;;;;;12.77;77.80;96813.25;5035815;28;20091;-71
2023/09/23 01:25:19;;;;;;;0.20;0.20;;;;;;;12.69;78.51;96808.19;5040650;28;20510;-72
2023/09/23 01:27:47;;;;;;;0.22;0.22;;;;;;;12.74;78.16;96808.34;5029980;28;20041;-72
2023/09/23 01:30:14;;;;;;;0.20;0.20;;;;;;;12.75;77.82;96826.84;5038431;28;20075;-72
2023/09/23 01:32:46;;;;;;;0.17;0.17;;;;;;;12.75;77.87;96834.88;5035904;28;20435;-72
2023/09/23 01:35:16;;;;;;;;;;;;;;;12.74;77.91;96833.25;5039695;28;20044;-71
2023/09/23 01:37:45;;;;;;;0.13;0.13;;;;;;;12.79;77.53;96836.03;5033554;28;19920;-71
2023/09/23 01:40:17;;;;;;;0.13;0.13;;;;;;;12.79;77.52;96837.91;5033895;28;20049;-72
2023/09/23 01:42:44;;;;;;;0.20;0.20;;;;;;;12.76;77.51;96851.78;5033156;28;20406;-71
2023/09/23 01:45:16;;;;;;;0.10;0.10;;;;;;;12.72;77.54;96848.72;5041256;28;20406;-71
2023/09/23 01:47:46;;;;;;;0.15;0.15;;;;;;;12.80;77.04;96852.94;5035331;28;20053;-71
2023/09/23 01:50:14;;;;;;;0.17;0.17;;;;;;;12.76;77.22;96860.63;5026209;28;20061;-72
2023/09/23 01:52:42;;;;;;;0.20;0.20;;;;;;;12.73;77.30;96868.28;5026242;28;20521;-72
2023/09/23 01:55:12;;;;;;;0.20;0.20;;;;;;;12.70;76.97;96864.19;5027395;28;20370;-72
2023/09/23 01:57:41;;;;;;;0.10;0.10;;;;;;;12.71;77.17;96870.38;5033300;28;20041;-72
2023/09/23 02:00:17;;;;;;;0.10;0.10;;;;;;;12.66;77.24;96864.88;5049962;28;20084;-72
2023/09/23 02:02:45;;;;;;;0.10;0.10;;;;;;;12.69;76.88;96865.22;5033635;28;20132;-72
2023/09/23 02:05:13;;;;;;;0.20;0.20;;;;;;;12.64;76.94;96869.63;5033891;28;20041;-72
2023/09/23 02:07:41;;;;;;;0.20;0.20;;;;;;;12.63;76.86;96865.31;5045518;28;20414;-71
2023/09/23 02:10:11;;;;;;;0.20;0.20;;;;;;;12.64;76.71;96867.78;5033921;28;20069;-72
2023/09/23 02:12:39;;;;;;;0.10;0.10;;;;;;;12.63;76.59;96886.75;5035806;28;20037;-71
2023/09/23 02:15:08;;;;;;;0.10;0.10;;;;;;;12.64;76.75;96870.47;5037304;28;20116;-71
2023/09/23 02:17:36;;;;;;;0.20;0.20;;;;;;;12.63;76.51;96876.84;5049933;28;20140;-71
2023/09/23 02:20:09;;;;;;;0.20;0.20;;;;;;;12.68;76.33;96882.34;5039202;28;20132;-71
2023/09/23 02:22:37;;;;;;;;;;;;;;;12.64;76.31;96873.13;5038450;28;20121;-71
2023/09/23 02:25:07;;;;;;;0.20;0.20;;;;;;;12.57;76.42;96875.06;5038824;28;20262;-72
2023/09/23 02:27:37;;;;;;;0.25;0.25;;;;;;;12.61;76.45;96891.50;5032117;28;20041;-71
2023/09/23 02:30:09;;;;;;;0.20;0.20;;;;;;;12.56;76.52;96894.88;5065428;23;20049;-70
2023/09/23 02:32:40;;;;;;;0.20;0.20;;;;;;;12.52;77.15;96895.53;5051237;28;20067;-70
2023/09/23 02:35:10;;;;;;;0.10;0.10;;;;;;;12.53;76.84;96895.31;5052007;28;20562;-70
2023/09/23 02:37:40;;;;;;;0.20;0.20;;;;;;;12.56;76.94;96902.91;5051122;28;20480;-71
2023/09/23 02:40:12;;;;;;;0.25;0.25;;;;;;;12.57;76.64;96906.38;5047544;28;20045;-70
2023/09/23 02:42:41;;;;;;;0.10;0.10;;;;;;;12.55;77.09;96909.28;5032927;28;20529;-69
2023/09/23 02:45:12;;;;;;;0.20;0.20;;;;;;;12.50;76.95;96923.34;5025960;28;20053;-70
2023/09/23 02:47:43;;;;;;;0.10;0.10;;;;;;;12.49;77.33;96918.19;5030152;28;20141;-69
2023/09/23 02:50:13;;;;;;;0.15;0.15;;;;;;;12.51;76.73;96921.47;5032295;28;20065;-70
2023/09/23 02:52:44;;;;;;;0.20;0.20;;;;;;;12.42;77.24;96917.47;5032166;28;20562;-70
2023/09/23 02:55:14;;;;;;;0.32;0.32;;;;;;;12.43;77.42;96919.09;5025015;28;20046;-70
2023/09/23 02:57:45;;;;;;;0.13;0.13;;;;;;;12.46;77.25;96915.97;5046088;28;20072;-70
2023/09/23 03:00:20;;;;;;;0.10;0.10;;;;;;;12.38;77.23;96921.59;5031348;28;20401;-70
2023/09/23 03:02:53;;;;;;;0.10;0.10;;;;;;;12.46;77.32;96924.81;5032431;28;20421;-70
2023/09/23 03:05:26;;;;;;;0.20;0.20;;;;;;;12.45;76.83;96931.22;5032376;28;20107;-70
2023/09/23 03:07:57;;;;;;;0.20;0.20;;;;;;;12.43;76.99;96929.81;5022606;28;20061;-70
2023/09/23 03:10:34;;;;;;;0.10;0.10;;;;;;;12.40;77.01;96931.06;5026261;28;20099;-70
2023/09/23 03:13:05;;;;;;;0.15;0.15;;;;;;;12.43;76.96;96943.19;5047175;28;20494;-74
2023/09/23 03:15:41;;;;;;;0.10;0.10;;;;;;;12.42;76.96;96938.88;5026961;28;20627;-71
2023/09/23 03:18:09;;;;;;;0.30;0.30;;;;;;;12.47;77.35;96936.34;5027205;28;20050;-71
2023/09/23 03:20:40;;;;;;;0.10;0.10;;;;;;;12.46;76.11;96937.38;5029434;28;20048;-71
2023/09/23 03:23:10;;;;;;;0.10;0.10;;;;;;;12.40;76.18;96944.44;5029676;28;20458;-71
2023/09/23 03:25:45;;;;;;;0.22;0.22;;;;;;;12.36;75.95;96947.78;5030407;28;20041;-71
2023/09/23 03:28:15;;;;;;;0.22;0.22;;;;;;;12.27;75.61;96941.06;5030623;28;20133;-71
2023/09/23 03:30:47;;;;;;;0.10;0.10;;;;;;;12.19;75.66;96952.06;5030669;28;20038;-71
2023/09/23 03:33:19;;;;;;;0.20;0.20;;;;;;;12.12;75.60;96955.63;5046821;28;20520;-71
2023/09/23 03:35:49;;;;;;;0.20;0.20;;;;;;;12.10;75.77;96954.22;5046522;28;20164;-71
2023/09/23 03:38:17;;;;;;;0.20;0.20;;;;;;;12.03;75.83;96954.28;5046347;28;20128;-71
2023/09/23 03:40:50;;;;;;;0.20;0.20;;;;;;;12.02;75.04;96962.53;5029887;28;20048;-71
2023/09/23 03:43:20;;;;;;;0.30;0.30;;;;;;;12.01;75.17;96959.03;5046633;28;20061;-70
2023/09/23 03:45:51;;;;;;;0.20;0.20;;;;;;;12.06;74.88;96971.72;5046313;28;20041;-71
2023/09/23 03:48:19;;;;;;;0.20;0.20;;;;;;;12.04;74.38;96974.63;5045928;28;20068;-71
2023/09/23 03:50:51;;;;;;;0.20;0.20;;;;;;;12.05;74.26;96970.09;5029454;28;20156;-71
2023/09/23 03:53:21;;;;;;;0.20;0.20;;;;;;;12.04;74.42;96974.63;5030129;28;20045;-70
2023/09/23 03:55:50;;;;;;;0.20;0.20;;;;;;;12.06;74.43;96971.72;5045612;28;20068;-70
2023/09/23 03:58:19;;;;;;;0.22;0.22;;;;;;;12.09;74.07;96977.47;5030133;28;20045;-69
2023/09/23 04:00:47;;;;;;;0.15;0.15;;;;;;;12.16;73.95;96996.13;5030647;28;20505;-70
2023/09/23 04:03:17;;;;;;;0.20;0.20;;;;;;;12.16;73.96;96987.28;5028927;28;20099;-71
2023/09/23 04:05:53;;;;;;;0.20;0.20;;;;;;;12.13;73.84;96992.06;5018800;28;20128;-70
2023/09/23 04:08:21;;;;;;;0.20;0.20;;;;;;;12.16;73.79;96989.94;5032772;28;20045;-70
2023/09/23 04:10:49;;;;;;;0.17;0.17;;;;;;;12.13;73.51;96991.22;5030912;28;20056;-71
2023/09/23 04:13:17;;;;;;;0.20;0.20;;;;;;;12.13;74.03;97004.63;5025256;28;20053;-70
2023/09/23 04:15:47;;;;;;;0.13;0.13;;;;;;;12.31;73.79;97007.31;5030189;28;20033;-70
2023/09/23 04:18:18;;;;;;;0.20;0.20;;;;;;;12.28;73.57;97013.09;5030412;28;20529;-70
2023/09/23 04:20:46;;;;;;;0.20;0.20;;;;;;;12.31;73.53;97017.22;5031133;28;20128;-71
2023/09/23 04:23:14;;;;;;;0.25;0.25;;;;;;;12.36;73.51;97020.03;5030471;28;20041;-71
2023/09/23 04:25:42;;;;;;;0.22;0.22;;;;;;;12.37;73.03;97013.63;5030470;28;20041;-70
2023/09/23 04:28:10;;;;;;;0.20;0.20;;;;;;;12.36;73.05;97015.50;5025506;28;20046;-70
2023/09/23 04:30:38;;;;;;;0.20;0.20;;;;;;;12.36;73.09;97028.06;5027850;28;20050;-70
2023/09/23 04:33:06;;;;;;;0.20;0.20;;;;;;;12.40;72.76;97029.25;5027765;28;20046;-70
2023/09/23 04:35:35;;;;;;;0.20;0.20;;;;;;;12.45;72.79;97035.63;5026862;28;20104;-70
2023/09/23 04:38:03;;;;;;;0.20;0.20;;;;;;;12.41;72.73;97036.25;5030778;28;20500;-72
2023/09/23 04:40:31;;;;;;;0.10;0.10;;;;;;;12.33;73.22;97044.56;5032992;28;20621;-70
2023/09/23 04:42:59;;;;;;;0.20;0.20;;;;;;;12.32;73.17;97057.13;5028998;28;20091;-70
2023/09/23 04:45:27;;;;;;;0.10;0.10;;;;;;;12.46;73.10;97052.47;5034436;28;20041;-70
2023/09/23 04:47:55;;;;;;;0.20;0.20;;;;;;;12.49;72.30;97057.38;5034582;28;20061;-71
2023/09/23 04:50:24;;;;;;;0.20;0.20;;;;;;;12.52;72.45;97056.97;5050513;28;20418;-71
2023/09/23 04:52:54;;;;;;;0.20;0.20;;;;;;;12.48;72.43;97067.28;5035632;28;20115;-71
2023/09/23 04:55:22;;;;;;;0.20;0.20;;;;;;;12.47;72.69;97078.19;5036873;28;20053;-71
2023/09/23 04:57:50;;;;;;;0.15;0.15;;;;;;;12.41;72.83;97079.09;5024408;28;20057;-71
2023/09/23 05:00:19;;;;;;;0.22;0.22;;;;;;;12.45;72.84;97067.72;5033587;28;20457;-72
2023/09/23 05:02:48;;;;;;;0.15;0.15;;;;;;;12.59;72.60;97083.66;5035643;28;20041;-71
2023/09/23 05:05:16;;;;;;;0.30;0.30;;;;;;;12.60;72.29;97079.94;5032405;28;20132;-71
2023/09/23 05:07:44;;;;;;;0.20;0.20;;;;;;;12.58;72.36;97082.84;5035951;28;20041;-72
2023/09/23 05:10:13;;;;;;;0.20;0.20;;;;;;;12.56;72.41;97084.94;5036723;28;20045;-72
2023/09/23 05:12:41;;;;;;;0.13;0.13;;;;;;;12.60;72.57;97093.31;5032189;28;20049;-74
2023/09/23 05:15:14;;;;;;;0.20;0.20;;;;;;;12.59;72.28;97097.84;5032849;28;20045;-73
2023/09/23 05:17:43;;;;;;;0.10;0.10;;;;;;;12.54;72.61;97100.41;5034577;28;20057;-74
2023/09/23 05:20:25;;;;;;;0.20;0.20;;;;;;;12.58;72.32;97103.44;5033269;28;20033;-74
2023/09/23 05:22:53;;;;;;;0.20;0.20;;;;;;;12.60;72.19;97112.88;5032891;28;20033;-73
2023/09/23 05:25:24;;;;;;;0.20;0.20;;;;;;;12.54;72.44;97119.13;5033092;28;20048;-73
2023/09/23 05:27:54;;;;;;;0.10;0.10;;;;;;;12.46;72.54;97132.75;5032155;28;20116;-73
2023/09/23 05:30:23;;;;;;;0.20;0.20;;;;;;;12.44;72.74;97137.53;5021580;28;20046;-74
2023/09/23 05:32:51;;;;;;;0.20;0.20;;;;;;;12.45;72.57;97133.81;5031394;28;20045;-73
2023/09/23 05:35:19;;;;;;;0.17;0.17;;;;;;;12.48;72.17;97130.69;5033147;28;20746;-76
2023/09/23 05:37:48;;;;;;;0.20;0.20;;;;;;;12.48;72.19;97138.72;5027364;28;20514;-75
2023/09/23 05:40:23;;;;;;;0.20;0.20;;;;;;;12.42;72.30;97136.94;5032002;28;20134;-76
2023/09/23 05:42:53;;;;;;;0.20;0.20;;;;;;;12.42;72.46;97134.25;5047952;28;20077;-75
2023/09/23 05:45:23;;;;;;;0.20;0.20;;;;;;;12.39;72.72;97138.19;5030851;28;20120;-75
2023/09/23 05:47:51;;;;;;;0.13;0.13;;;;;;;12.36;72.55;97143.13;5031588;28;20073;-75
2023/09/23 05:50:20;;;;;;;0.20;0.20;;;;;;;12.35;72.77;97146.88;5033025;28;20229;-75
2023/09/23 05:52:48;;;;;;;0.10;0.10;;;;;;;12.36;72.70;97146.63;5031148;28;20128;-76
2023/09/23 05:55:16;;;;;;;0.22;0.22;;;;;;;12.36;72.63;97148.47;5030820;28;20049;-75
2023/09/23 05:57:44;;;;;;;0.20;0.20;;;;;;;12.37;72.90;97156.31;5032443;28;20132;-75
2023/09/23 06:00:16;;;;;;;0.20;0.20;;;;;;;12.39;72.99;97158.75;5032871;28;20042;-75
2023/09/23 06:02:45;;;;;;;;;;;;;;;12.36;72.77;97169.91;5033662;28;20103;-76
2023/09/23 06:05:13;;;;;;;0.10;0.10;;;;;;;12.34;72.98;97166.63;5032516;28;19925;-75
2023/09/23 06:07:42;;;;;;;0.20;0.20;;;;;;;12.32;73.04;97171.38;5028597;28;20053;-76
2023/09/23 06:10:10;;;;;;;0.20;0.20;;;;;;;12.38;73.22;97178.53;5031779;28;20097;-75
2023/09/23 06:12:38;;;;;;;0.10;0.10;;;;;;;12.33;73.31;97181.88;5025149;28;20524;-76
2023/09/23 06:15:07;;;;;;;0.20;0.20;;;;;;;12.29;73.52;97179.84;5023633;28;20049;-76
2023/09/23 06:17:37;;;;;;;0.20;0.20;;;;;;;12.23;74.07;97183.38;5029008;28;20121;-74
2023/09/23 06:20:07;;;;;;;0.20;0.20;;;;;;;12.19;74.39;97182.16;5032414;28;20041;-75
2023/09/23 06:22:35;;;;;;;0.10;0.10;;;;;;;12.18;74.21;97185.88;5032967;28;20065;-76
2023/09/23 06:25:03;;;;;;;0.20;0.20;;;;;;;12.14;74.29;97185.50;5031190;28;20040;-76
2023/09/23 06:27:31;;;;;;;0.20;0.20;;;;;;;12.24;74.43;97185.03;5029385;28;20052;-75
2023/09/23 06:29:59;;;;;;;0.20;0.20;;;;;;;12.27;73.47;97184.56;5033670;28;20037;-75
2023/09/23 06:32:27;;;;;;;0.22;0.22;;;;;;;12.28;73.29;97188.91;5033775;28;20073;-75
2023/09/23 06:34:57;;;;;;;0.20;0.20;;;;;;;12.23;73.54;97191.41;5029302;28;20128;-75
2023/09/23 06:37:24;;;;;;;0.10;0.10;;;;;;;12.34;73.01;97198.75;5029993;28;20049;-76
2023/09/23 06:39:52;;;;;;;0.10;0.10;;;;;;;12.38;72.87;97210.66;5030591;28;20091;-75
2023/09/23 06:42:20;;;;;;;0.10;0.10;;;;;;;12.46;72.69;97213.06;5030833;28;20077;-75
2023/09/23 06:44:48;;;;;;;0.17;0.17;;;;;;;12.46;72.51;97207.72;5030206;28;20048;-74
2023/09/23 06:47:16;;;;;;;0.20;0.20;;;;;;;12.45;72.29;97208.78;5025269;28;20042;-74
2023/09/23 06:49:43;;;;;;;0.20;0.20;;;;;;;12.47;72.26;97222.75;5032146;28;20044;-76
2023/09/23 06:52:12;;;;;;;0.17;0.17;;;;;;;12.55;71.90;97227.03;5032440;28;20395;-76
2023/09/23 06:54:40;;;;;;;0.10;0.10;;;;;;;12.60;71.72;97224.50;5032492;28;20041;-76
2023/09/23 06:57:08;;;;;;;0.20;0.20;;;;;;;12.58;70.99;97231.94;5031489;28;20045;-75
2023/09/23 06:59:36;;;;;;;0.22;0.22;;;;;;;12.58;70.49;97232.75;5027309;28;20052;-74
2023/09/23 07:02:04;;;;;;;0.20;0.20;;;;;;;12.59;70.54;97236.25;5031022;28;20041;-77
2023/09/23 07:04:32;;;;;;;0.10;0.10;;;;;;;12.66;70.28;97240.56;5028847;28;20120;-76
2023/09/23 07:07:00;;;;;;;0.10;0.10;;;;;;;12.72;69.84;97250.38;5030814;28;20048;-75
2023/09/23 07:09:29;;;;;;;0.13;0.13;;;;;;;12.68;69.35;97249.16;5031095;28;20525;-76
2023/09/23 07:11:57;;;;;;;0.20;0.20;;;;;;;12.64;69.55;97255.19;5029856;28;20037;-75
2023/09/23 07:14:24;;;;;;;0.35;0.35;;;;;;;12.70;69.41;97249.78;5046490;28;20049;-75
2023/09/23 07:16:52;;;;;;;0.22;0.22;;;;;;;12.76;69.65;97262.31;5030379;28;20518;-76
2023/09/23 07:19:20;;;;;;;0.10;0.10;;;;;;;12.87;69.08;97263.47;5031525;28;20068;-75
2023/09/23 07:21:48;;;;;;;0.20;0.20;;;;;;;12.88;68.75;97265.91;5031771;28;20049;-76
2023/09/23 07:24:15;;;;;;;0.10;0.10;;;;;;;12.96;69.03;97261.34;5037891;28;20057;-76
2023/09/23 07:26:44;;;;;;;0.20;0.20;;;;;;;13.09;68.29;97271.94;5027276;28;20042;-75
2023/09/23 07:29:12;;;;;;;0.20;0.20;;;;;;;13.10;67.66;97260.19;5029729;28;20041;-76
2023/09/23 07:31:40;;;;;;;0.20;0.20;;;;;;;12.96;67.16;97274.75;5020416;28;20514;-76
2023/09/23 07:34:07;;;;;;;0.20;0.20;;;;;;;12.99;67.62;97268.94;5021508;28;20069;-75
2023/09/23 07:36:35;;;;;;;0.10;0.10;;;;;;;13.08;67.53;97270.34;5029392;28;20674;-74
2023/09/23 07:39:03;;;;;;;0.15;0.15;;;;;;;13.05;67.34;97276.13;5026959;28;20121;-76
2023/09/23 07:41:30;;;;;;;0.10;0.10;;;;;;;13.11;66.95;97272.56;5031182;28;20042;-75
2023/09/23 07:43:59;;;;;;;0.10;0.10;;;;;;;13.08;67.45;97283.72;5024851;28;20465;-75
2023/09/23 07:46:27;;;;;;;0.22;0.22;;;;;;;13.22;67.19;97293.31;5029521;28;20401;-74
2023/09/23 07:48:55;;;;;;;0.20;0.20;;;;;;;13.36;66.64;97294.03;5027745;28;20041;-76
2023/09/23 07:51:23;;;;;;;0.10;0.10;;;;;;;13.38;66.37;97305.38;5029454;28;20072;-76
2023/09/23 07:53:51;;;;;;;0.20;0.20;;;;;;;13.50;66.52;97307.09;5028903;28;20405;-76
2023/09/23 07:56:19;;;;;;;0.10;0.10;;;;;;;13.44;65.59;97302.63;5029785;28;20461;-75
2023/09/23 07:58:47;;;;;;;0.10;0.10;;;;;;;13.41;66.37;97319.13;5029736;28;20045;-76
2023/09/23 08:01:17;;;;;;;0.20;0.20;;;;;;;13.53;66.21;97329.97;5029806;28;20041;-76
2023/09/23 08:03:45;;;;;;;0.20;0.20;;;;;;;13.47;65.84;97331.69;5029836;28;20120;-76
2023/09/23 08:06:13;;;;;;;0.10;0.10;;;;;;;13.47;65.55;97337.03;5028031;28;20041;-76
2023/09/23 08:08:40;;;;;;;0.20;0.20;;;;;;;13.51;65.62;97330.19;5030236;28;20084;-75
2023/09/23 08:11:08;;;;;;;0.20;0.20;;;;;;;13.47;65.57;97336.22;5031472;28;20129;-76
2023/09/23 08:13:38;;;;;;;0.30;0.30;;;;;;;13.40;65.25;97330.06;5033051;28;20045;-73
2023/09/23 08:16:10;;;;;;;0.20;0.20;;;;;;;13.22;66.11;97344.25;5031602;28;20048;-76
2023/09/23 08:18:39;;;;;;;0.17;0.17;;;;;;;13.26;66.35;97352.69;5019719;28;20062;-76
2023/09/23 08:21:07;;;;;;;0.30;0.30;;;;;;;13.23;66.36;97351.25;5028083;28;20141;-76
2023/09/23 08:23:35;;;;;;;0.20;0.20;;;;;;;13.27;66.55;97362.38;5029586;28;20080;-75
2023/09/23 08:26:04;;;;;;;0.20;0.20;;;;;;;13.27;65.88;97365.88;5034874;28;20037;-76
2023/09/23 08:28:32;;;;;;;0.20;0.20;;;;;;;13.34;65.61;97363.94;5061037;23;20056;-71
2023/09/23 08:30:59;;;;;;;0.20;0.20;;;;;;;13.28;65.63;97367.50;5046988;28;20512;-72
2023/09/23 08:33:27;;;;;;;0.15;0.15;;;;;;;13.34;65.86;97371.16;5038595;28;20045;-73
2023/09/23 08:35:57;;;;;;;0.30;0.30;;;;;;;13.42;65.62;97361.00;5046837;28;20053;-73
2023/09/23 08:38:24;;;;;;;0.20;0.20;;;;;;;13.45;65.66;97365.94;5045853;28;20121;-75
2023/09/23 08:40:53;;;;;;;0.20;0.20;;;;;;;13.58;64.91;97375.72;5062115;28;20047;-73
2023/09/23 08:43:35;;;;;;;0.20;0.20;;;;;;;13.57;64.81;97377.59;5062739;28;20482;-71
2023/09/23 08:46:04;;;;;;;0.20;0.20;;;;;;;13.51;64.57;97389.19;5057354;28;20122;-73
2023/09/23 08:48:32;;;;;;;0.20;0.20;;;;;;;13.56;65.10;97392.03;5064750;28;20402;-73
2023/09/23 08:51:02;;;;;;;0.10;0.10;;;;;;;13.51;65.16;97396.41;5063243;28;20037;-73
2023/09/23 08:53:31;;;;;;;0.20;0.20;;;;;;;13.56;65.22;97384.00;5066083;28;20048;-73
2023/09/23 08:56:00;;;;;;;0.30;0.30;;;;;;;13.65;65.13;97394.44;5069007;28;20051;-72
2023/09/23 08:58:28;;;;;;;0.20;0.20;;;;;;;13.70;64.38;97399.97;5084453;28;20048;-71
2023/09/23 09:00:56;;;;;;;0.30;0.30;;;;;;;13.77;64.36;97404.25;5068620;28;20160;-73
2023/09/23 09:03:24;;;;;;;0.20;0.20;;;;;;;13.84;63.74;97406.84;5070399;28;20513;-71
2023/09/23 09:05:52;;;;;;;0.30;0.30;;;;;;;13.92;63.53;97395.84;5068090;28;20044;-74
2023/09/23 09:08:21;;;;;;;0.22;0.22;;;;;;;13.91;62.41;97410.31;5071659;28;20072;-71
2023/09/23 09:10:49;;;;;;;0.15;0.15;;;;;;;13.94;62.05;97412.53;5071095;28;20048;-73
2023/09/23 09:13:17;;;;;;;0.20;0.20;;;;;;;13.91;62.39;97410.31;5072014;28;20048;-71
2023/09/23 09:15:45;;;;;;;0.15;0.15;;;;;;;13.94;60.74;97402.63;5073845;28;20496;-73
2023/09/23 09:18:13;;;;;;;0.20;0.20;;;;;;;13.94;60.96;97408.00;5069376;28;20063;-71
2023/09/23 09:20:42;;;;;;;0.20;0.20;;;;;;;14.01;59.66;97415.19;5069324;28;20541;-71
2023/09/23 09:23:12;;;;;;;0.20;0.20;;;;;;;13.97;58.75;97409.44;5072821;28;20120;-73
2023/09/23 09:25:47;;;;;;;0.15;0.15;;;;;;;14.03;58.61;97405.84;5072498;28;20063;-73
2023/09/23 09:28:16;;;;;;;0.08;0.08;;;;;;;14.10;58.59;97400.44;5074651;28;20045;-74
2023/09/23 09:30:45;;;;;;;0.20;0.20;;;;;;;14.16;58.59;97410.28;5070882;28;20041;-74
2023/09/23 09:33:15;;;;;;;0.20;0.20;;;;;;;14.14;57.65;97398.94;5069993;28;20036;-73
2023/09/23 09:35:43;;;;;;;0.10;0.10;;;;;;;14.07;56.96;97400.88;5073618;28;20115;-73
2023/09/23 09:38:11;;;;;;;0.20;0.20;;;;;;;14.08;57.22;97411.41;5071443;28;20041;-74
2023/09/23 09:40:47;;;;;;;0.13;0.13;;;;;;;14.18;57.19;97405.50;5071145;28;20063;-74
2023/09/23 09:43:16;;;;;;;0.22;0.22;;;;;;;14.38;56.99;97416.03;5071404;28;20040;-74
2023/09/23 09:45:44;;;;;;;0.20;0.20;;;;;;;14.62;56.60;97407.13;5067928;28;20053;-74
2023/09/23 09:48:13;;;;;;;0.13;0.13;;;;;;;14.72;56.40;97420.03;5069182;28;20076;-74
2023/09/23 09:50:41;;;;;;;0.10;0.10;;;;;;;14.81;55.78;97410.63;5065475;28;20500;-74
2023/09/23 09:53:09;;;;;;;0.13;0.13;;;;;;;14.98;55.25;97414.31;5067929;28;20048;-74
2023/09/23 09:55:37;;;;;;;0.20;0.20;;;;;;;14.71;55.10;97416.53;5060576;28;20047;-74
2023/09/23 09:58:06;;;;;;;0.10;0.10;;;;;;;14.81;55.47;97421.38;5068515;28;20119;-73
2023/09/23 10:00:42;;;;;;;0.20;0.20;;;;;;;14.94;54.37;97419.34;5060471;28;20041;-71
2023/09/23 10:03:12;;;;;;;0.13;0.13;;;;;;;15.18;53.71;97417.56;5066198;28;20047;-74
2023/09/23 10:05:45;;;;;;;0.10;0.10;;;;;;;15.11;53.68;97429.47;5075755;28;20408;-72
2023/09/23 10:08:15;;;;;;;0.13;0.13;;;;;;;14.92;54.43;97416.06;5083913;28;20051;-72
2023/09/23 10:10:47;;;;;;;0.20;0.20;;;;;;;14.98;53.79;97417.81;5072643;28;20127;-72
2023/09/23 10:13:18;;;;;;;0.10;0.10;;;;;;;14.90;53.76;97415.47;5071300;28;20041;-74
2023/09/23 10:15:46;;;;;;;0.20;0.20;;;;;;;15.02;54.53;97418.19;5070990;28;20040;-71
2023/09/23 10:18:15;;;;;;;0.13;0.13;;;;;;;15.04;54.93;97411.56;5063478;28;20072;-74
2023/09/23 10:20:48;;;;;;;0.10;0.10;;;;;;;15.12;55.13;97423.84;5071731;28;20056;-75
2023/09/23 10:23:17;;;;;;;0.20;0.20;;;;;;;15.07;53.58;97419.16;5061755;28;20096;-74
2023/09/23 10:25:47;;;;;;;0.10;0.10;;;;;;;15.35;53.67;97420.44;5060586;28;20044;-74
2023/09/23 10:28:23;;;;;;;0.17;0.17;;;;;;;15.56;52.89;97424.50;5067615;28;20053;-73
2023/09/23 10:30:58;;;;;;;0.13;0.13;;;;;;;15.61;51.87;97432.69;5070204;28;20047;-75
2023/09/23 10:33:27;;;;;;;0.20;0.20;;;;;;;15.57;52.07;97426.97;5063590;28;20041;-73
2023/09/23 10:35:56;;;;;;;0.40;0.40;;;;;;;15.67;53.07;97419.16;5068109;28;20051;-74
2023/09/23 10:38:26;;;;;;;0.10;0.10;;;;;;;15.66;51.63;97417.50;5064562;28;20134;-73
2023/09/23 10:40:54;;;;;;;0.10;0.10;;;;;;;15.81;51.94;97417.06;5062437;28;20049;-74
2023/09/23 10:43:23;;;;;;;0.30;0.30;;;;;;;15.77;51.44;97421.28;5069646;28;20051;-73
2023/09/23 10:45:52;;;;;;;0.10;0.10;;;;;;;15.83;51.15;97424.91;5064388;28;20059;-73
2023/09/23 10:48:20;;;;;;;0.20;0.20;;;;;;;15.53;51.74;97422.22;5066847;28;20047;-73
2023/09/23 10:50:50;;;;;;;0.20;0.20;;;;;;;15.71;51.71;97423.00;5070905;28;20114;-73
2023/09/23 10:53:18;;;;;;;0.00;0.00;;;;;;;15.98;51.18;97422.59;5072728;28;20037;-73
2023/09/23 10:55:46;;;;;;;0.17;0.17;;;;;;;15.90;51.68;97422.91;5071428;28;20063;-73
2023/09/23 10:58:13;;;;;;;0.10;0.10;;;;;;;16.15;51.46;97418.13;5066139;28;20078;-73
2023/09/23 11:00:42;;;;;;;0.30;0.30;;;;;;;16.35;51.20;97423.16;5070104;28;20036;-73
2023/09/23 11:03:12;;;;;;;0.20;0.20;;;;;;;16.56;50.83;97425.25;5072837;28;20043;-73
2023/09/23 11:05:43;;;;;;;0.20;0.20;;;;;;;16.70;49.22;97433.94;5068146;28;20044;-73
2023/09/23 11:08:12;;;;;;;0.20;0.20;;;;;;;16.41;49.60;97433.81;5063073;28;20417;-73
2023/09/23 11:10:40;;;;;;;0.20;0.20;;;;;;;16.12;50.66;97426.66;5072072;28;20048;-72
2023/09/23 11:13:10;;;;;;;0.20;0.20;;;;;;;16.48;50.21;97433.69;5070718;28;20111;-73
2023/09/23 11:15:39;;;;;;;0.10;0.10;;;;;;;16.80;49.00;97424.19;5067463;28;20045;-73
2023/09/23 11:18:09;;;;;;;0.10;0.10;;;;;;;17.07;48.54;97426.31;5068857;28;20552;-73
2023/09/23 11:20:40;;;;;;;0.20;0.20;;;;;;;17.27;47.88;97421.31;5064820;28;20041;-73
2023/09/23 11:23:10;;;;;;;0.10;0.10;;;;;;;17.65;46.70;97417.97;5065068;28;20048;-73
2023/09/23 11:25:41;;;;;;;0.20;0.20;;;;;;;17.46;46.60;97421.91;5074121;28;20048;-73
2023/09/23 11:28:16;;;;;;;0.17;0.17;;;;;;;17.39;47.31;97418.56;5068515;28;20037;-73
2023/09/23 11:30:44;;;;;;;0.25;0.25;;;;;;;16.91;47.89;97422.50;5070255;28;20060;-73
2023/09/23 11:33:13;;;;;;;0.10;0.10;;;;;;;16.92;48.70;97426.84;5077249;28;20044;-72
2023/09/23 11:35:41;;;;;;;0.20;0.20;;;;;;;17.43;47.02;97433.22;5068966;28;20044;-75
2023/09/23 11:38:09;;;;;;;0.10;0.10;;;;;;;17.80;46.37;97429.03;5069250;28;20036;-74
2023/09/23 11:40:37;;;;;;;0.17;0.17;;;;;;;17.58;45.18;97428.09;5069006;28;20049;-73
2023/09/23 11:43:05;;;;;;;0.10;0.10;;;;;;;17.61;44.91;97433.81;5066189;28;20543;-71